sensor_id;sensor_type;location;lat;lon;timestamp;temperature;humidity
77467;DHT22;66564;42.482;25.548;2023-04-25T00:02:22;14.41;70.13
77467;DHT22;66564;42.482;25.548;2023-04-25T00:04:47;14.40;70.19
77467;DHT22;66564;42.482;25.548;2023-04-25T00:07:14;14.41;70.37
77467;DHT22;66564;42.482;25.548;2023-04-25T00:09:40;14.37;70.66
77467;DHT22;66564;42.482;25.548;2023-04-25T00:12:06;14.43;71.02
77467;DHT22;66564;42.482;25.548;2023-04-25T00:14:31;14.40;71.54
77467;DHT22;66564;42.482;25.548;2023-04-25T00:16:59;14.37;71.46
77467;DHT22;66564;42.482;25.548;2023-04-25T00:19:25;14.32;71.42
77467;DHT22;66564;42.482;25.548;2023-04-25T00:21:52;14.29;71.43
77467;DHT22;66564;42.482;25.548;2023-04-25T00:24:19;14.29;71.84
77467;DHT22;66564;42.482;25.548;2023-04-25T00:26:45;14.26;71.80
77467;DHT22;66564;42.482;25.548;2023-04-25T00:29:10;14.25;71.24
77467;DHT22;66564;42.482;25.548;2023-04-25T00:31:36;14.20;70.62
77467;DHT22;66564;42.482;25.548;2023-04-25T00:34:01;14.22;70.88
77467;DHT22;66564;42.482;25.548;2023-04-25T00:36:27;14.19;71.40
77467;DHT22;66564;42.482;25.548;2023-04-25T00:38:53;14.17;71.29
77467;DHT22;66564;42.482;25.548;2023-04-25T00:41:20;14.16;71.24
77467;DHT22;66564;42.482;25.548;2023-04-25T00:43:48;14.19;71.11
77467;DHT22;66564;42.482;25.548;2023-04-25T00:46:14;14.01;70.67
77467;DHT22;66564;42.482;25.548;2023-04-25T00:48:39;13.98;70.38
77467;DHT22;66564;42.482;25.548;2023-04-25T00:51:05;13.86;70.68
77467;DHT22;66564;42.482;25.548;2023-04-25T00:53:31;13.89;70.40
77467;DHT22;66564;42.482;25.548;2023-04-25T00:55:57;13.87;70.38
77467;DHT22;66564;42.482;25.548;2023-04-25T00:58:24;13.85;70.74
77467;DHT22;66564;42.482;25.548;2023-04-25T01:00:51;13.85;71.04
77467;DHT22;66564;42.482;25.548;2023-04-25T01:03:21;13.92;71.41
77467;DHT22;66564;42.482;25.548;2023-04-25T01:05:47;13.92;71.80
77467;DHT22;66564;42.482;25.548;2023-04-25T01:08:13;13.85;72.24
77467;DHT22;66564;42.482;25.548;2023-04-25T01:10:40;13.89;71.93
77467;DHT22;66564;42.482;25.548;2023-04-25T01:13:06;13.90;71.74
77467;DHT22;66564;42.482;25.548;2023-04-25T01:15:31;13.86;72.07
77467;DHT22;66564;42.482;25.548;2023-04-25T01:17:57;13.83;71.74
77467;DHT22;66564;42.482;25.548;2023-04-25T01:20:24;13.68;72.47
77467;DHT22;66564;42.482;25.548;2023-04-25T01:22:50;13.71;72.70
77467;DHT22;66564;42.482;25.548;2023-04-25T01:25:16;13.65;71.48
77467;DHT22;66564;42.482;25.548;2023-04-25T01:27:42;13.65;70.50
77467;DHT22;66564;42.482;25.548;2023-04-25T01:30:08;13.65;71.02
77467;DHT22;66564;42.482;25.548;2023-04-25T01:32:34;13.62;70.79
77467;DHT22;66564;42.482;25.548;2023-04-25T01:35:07;13.61;71.01
77467;DHT22;66564;42.482;25.548;2023-04-25T01:37:38;13.61;71.38
77467;DHT22;66564;42.482;25.548;2023-04-25T01:40:04;13.55;70.83
77467;DHT22;66564;42.482;25.548;2023-04-25T01:42:34;13.48;69.97
77467;DHT22;66564;42.482;25.548;2023-04-25T01:45:01;13.49;70.16
77467;DHT22;66564;42.482;25.548;2023-04-25T01:47:26;13.42;70.12
77467;DHT22;66564;42.482;25.548;2023-04-25T01:49:52;13.39;70.10
77467;DHT22;66564;42.482;25.548;2023-04-25T01:52:17;13.48;70.53
77467;DHT22;66564;42.482;25.548;2023-04-25T01:54:43;13.42;71.01
77467;DHT22;66564;42.482;25.548;2023-04-25T01:57:13;13.31;71.12
77467;DHT22;66564;42.482;25.548;2023-04-25T01:59:39;13.27;69.54
77467;DHT22;66564;42.482;25.548;2023-04-25T02:02:06;13.22;69.76
77467;DHT22;66564;42.482;25.548;2023-04-25T02:04:31;13.21;68.87
77467;DHT22;66564;42.482;25.548;2023-04-25T02:06:58;13.22;69.43
77467;DHT22;66564;42.482;25.548;2023-04-25T02:09:23;13.21;69.62
77467;DHT22;66564;42.482;25.548;2023-04-25T02:11:49;13.19;69.61
77467;DHT22;66564;42.482;25.548;2023-04-25T02:14:14;13.24;69.23
77467;DHT22;66564;42.482;25.548;2023-04-25T02:16:40;13.22;69.39
77467;DHT22;66564;42.482;25.548;2023-04-25T02:19:06;13.18;69.66
77467;DHT22;66564;42.482;25.548;2023-04-25T02:21:32;13.08;70.02
77467;DHT22;66564;42.482;25.548;2023-04-25T02:23:57;13.04;70.35
77467;DHT22;66564;42.482;25.548;2023-04-25T02:26:23;13.01;70.47
77467;DHT22;66564;42.482;25.548;2023-04-25T02:28:49;13.06;70.39
77467;DHT22;66564;42.482;25.548;2023-04-25T02:31:15;13.12;70.26
77467;DHT22;66564;42.482;25.548;2023-04-25T02:33:41;13.22;70.24
77467;DHT22;66564;42.482;25.548;2023-04-25T02:36:06;13.29;70.41
77467;DHT22;66564;42.482;25.548;2023-04-25T02:38:32;13.32;70.35
77467;DHT22;66564;42.482;25.548;2023-04-25T02:40:58;13.24;70.48
77467;DHT22;66564;42.482;25.548;2023-04-25T02:43:23;13.28;70.19
77467;DHT22;66564;42.482;25.548;2023-04-25T02:45:49;13.31;70.61
77467;DHT22;66564;42.482;25.548;2023-04-25T02:48:14;13.38;71.12
77467;DHT22;66564;42.482;25.548;2023-04-25T02:50:40;13.35;71.22
77467;DHT22;66564;42.482;25.548;2023-04-25T02:53:05;13.34;71.22
77467;DHT22;66564;42.482;25.548;2023-04-25T02:55:31;13.27;71.02
77467;DHT22;66564;42.482;25.548;2023-04-25T02:57:56;13.17;71.79
77467;DHT22;66564;42.482;25.548;2023-04-25T03:00:22;13.17;71.88
77467;DHT22;66564;42.482;25.548;2023-04-25T03:02:48;13.19;71.26
77467;DHT22;66564;42.482;25.548;2023-04-25T03:05:13;13.25;71.49
77467;DHT22;66564;42.482;25.548;2023-04-25T03:07:39;13.31;71.26
77467;DHT22;66564;42.482;25.548;2023-04-25T03:10:06;13.35;71.29
77467;DHT22;66564;42.482;25.548;2023-04-25T03:12:32;13.29;72.28
77467;DHT22;66564;42.482;25.548;2023-04-25T03:14:57;13.31;71.81
77467;DHT22;66564;42.482;25.548;2023-04-25T03:17:23;13.38;71.65
77467;DHT22;66564;42.482;25.548;2023-04-25T03:19:48;13.42;71.19
77467;DHT22;66564;42.482;25.548;2023-04-25T03:22:14;13.39;70.98
77467;DHT22;66564;42.482;25.548;2023-04-25T03:24:40;13.39;71.31
77467;DHT22;66564;42.482;25.548;2023-04-25T03:27:05;13.41;71.07
77467;DHT22;66564;42.482;25.548;2023-04-25T03:29:31;13.42;71.38
77467;DHT22;66564;42.482;25.548;2023-04-25T03:31:57;13.42;70.75
77467;DHT22;66564;42.482;25.548;2023-04-25T03:34:22;13.47;70.73
77467;DHT22;66564;42.482;25.548;2023-04-25T03:36:49;13.45;70.99
77467;DHT22;66564;42.482;25.548;2023-04-25T03:39:15;13.48;70.49
77467;DHT22;66564;42.482;25.548;2023-04-25T03:41:41;13.47;70.63
77467;DHT22;66564;42.482;25.548;2023-04-25T03:44:06;13.51;70.83
77467;DHT22;66564;42.482;25.548;2023-04-25T03:46:32;13.49;70.85
77467;DHT22;66564;42.482;25.548;2023-04-25T03:48:57;13.45;71.26
77467;DHT22;66564;42.482;25.548;2023-04-25T03:51:24;13.48;71.42
77467;DHT22;66564;42.482;25.548;2023-04-25T03:53:51;13.38;71.60
77467;DHT22;66564;42.482;25.548;2023-04-25T03:56:16;13.37;71.70
77467;DHT22;66564;42.482;25.548;2023-04-25T03:58:42;13.39;71.98
77467;DHT22;66564;42.482;25.548;2023-04-25T04:01:07;13.41;72.12
77467;DHT22;66564;42.482;25.548;2023-04-25T04:03:36;13.39;71.60
77467;DHT22;66564;42.482;25.548;2023-04-25T04:06:03;13.42;71.88
77467;DHT22;66564;42.482;25.548;2023-04-25T04:08:29;13.39;72.19
77467;DHT22;66564;42.482;25.548;2023-04-25T04:10:56;13.42;71.63
77467;DHT22;66564;42.482;25.548;2023-04-25T04:13:22;13.39;71.92
77467;DHT22;66564;42.482;25.548;2023-04-25T04:15:47;13.47;71.49
77467;DHT22;66564;42.482;25.548;2023-04-25T04:18:13;13.49;71.72
77467;DHT22;66564;42.482;25.548;2023-04-25T04:20:39;13.54;71.93
77467;DHT22;66564;42.482;25.548;2023-04-25T04:23:04;13.61;71.95
77467;DHT22;66564;42.482;25.548;2023-04-25T04:25:30;13.62;72.12
77467;DHT22;66564;42.482;25.548;2023-04-25T04:27:56;13.66;72.15
77467;DHT22;66564;42.482;25.548;2023-04-25T04:30:23;13.68;72.29
77467;DHT22;66564;42.482;25.548;2023-04-25T04:32:55;13.66;72.31
77467;DHT22;66564;42.482;25.548;2023-04-25T04:35:21;13.62;72.79
77467;DHT22;66564;42.482;25.548;2023-04-25T04:37:47;13.52;73.24
77467;DHT22;66564;42.482;25.548;2023-04-25T04:40:14;13.52;72.17
77467;DHT22;66564;42.482;25.548;2023-04-25T04:42:42;13.54;72.40
77467;DHT22;66564;42.482;25.548;2023-04-25T04:45:09;13.52;72.69
77467;DHT22;66564;42.482;25.548;2023-04-25T04:47:35;13.51;71.71
77467;DHT22;66564;42.482;25.548;2023-04-25T04:50:11;13.57;71.81
77467;DHT22;66564;42.482;25.548;2023-04-25T04:52:37;13.58;71.93
77467;DHT22;66564;42.482;25.548;2023-04-25T04:55:04;13.58;72.38
77467;DHT22;66564;42.482;25.548;2023-04-25T04:57:30;13.55;72.33
77467;DHT22;66564;42.482;25.548;2023-04-25T04:59:58;13.58;72.21
77467;DHT22;66564;42.482;25.548;2023-04-25T05:02:23;13.59;72.33
77467;DHT22;66564;42.482;25.548;2023-04-25T05:04:49;13.65;72.89
77467;DHT22;66564;42.482;25.548;2023-04-25T05:07:17;13.63;72.57
77467;DHT22;66564;42.482;25.548;2023-04-25T05:09:42;13.63;72.18
77467;DHT22;66564;42.482;25.548;2023-04-25T05:12:08;13.66;72.32
77467;DHT22;66564;42.482;25.548;2023-04-25T05:14:34;13.69;72.53
77467;DHT22;66564;42.482;25.548;2023-04-25T05:17:00;13.59;73.14
77467;DHT22;66564;42.482;25.548;2023-04-25T05:19:25;13.61;73.15
77467;DHT22;66564;42.482;25.548;2023-04-25T05:21:51;13.69;73.43
77467;DHT22;66564;42.482;25.548;2023-04-25T05:24:17;13.71;73.26
77467;DHT22;66564;42.482;25.548;2023-04-25T05:26:43;13.75;72.94
77467;DHT22;66564;42.482;25.548;2023-04-25T05:29:09;13.76;72.56
77467;DHT22;66564;42.482;25.548;2023-04-25T05:31:36;13.76;72.17
77467;DHT22;66564;42.482;25.548;2023-04-25T05:34:02;13.75;71.94
77467;DHT22;66564;42.482;25.548;2023-04-25T05:36:27;13.65;71.82
77467;DHT22;66564;42.482;25.548;2023-04-25T05:38:53;13.68;72.44
77467;DHT22;66564;42.482;25.548;2023-04-25T05:41:18;13.71;72.10
77467;DHT22;66564;42.482;25.548;2023-04-25T05:43:44;13.72;72.18
77467;DHT22;66564;42.482;25.548;2023-04-25T05:46:12;13.76;72.11
77467;DHT22;66564;42.482;25.548;2023-04-25T05:48:38;13.63;73.08
77467;DHT22;66564;42.482;25.548;2023-04-25T05:51:04;13.45;74.44
77467;DHT22;66564;42.482;25.548;2023-04-25T05:53:30;13.54;74.02
77467;DHT22;66564;42.482;25.548;2023-04-25T05:55:56;13.63;73.54
77467;DHT22;66564;42.482;25.548;2023-04-25T05:58:21;13.72;73.42
77467;DHT22;66564;42.482;25.548;2023-04-25T06:00:47;13.72;72.83
77467;DHT22;66564;42.482;25.548;2023-04-25T06:03:13;13.73;72.70
77467;DHT22;66564;42.482;25.548;2023-04-25T06:05:42;13.78;72.74
77467;DHT22;66564;42.482;25.548;2023-04-25T06:08:09;13.82;72.11
77467;DHT22;66564;42.482;25.548;2023-04-25T06:10:35;13.89;72.20
77467;DHT22;66564;42.482;25.548;2023-04-25T06:13:01;13.95;71.80
77467;DHT22;66564;42.482;25.548;2023-04-25T06:15:26;13.99;71.45
77467;DHT22;66564;42.482;25.548;2023-04-25T06:17:52;14.03;72.10
77467;DHT22;66564;42.482;25.548;2023-04-25T06:20:17;14.01;71.80
77467;DHT22;66564;42.482;25.548;2023-04-25T06:22:43;14.01;71.87
77467;DHT22;66564;42.482;25.548;2023-04-25T06:25:09;14.02;71.68
77467;DHT22;66564;42.482;25.548;2023-04-25T06:27:34;14.12;70.44
77467;DHT22;66564;42.482;25.548;2023-04-25T06:30:00;14.15;69.58
77467;DHT22;66564;42.482;25.548;2023-04-25T06:32:25;14.15;70.77
77467;DHT22;66564;42.482;25.548;2023-04-25T06:34:53;14.22;70.25
77467;DHT22;66564;42.482;25.548;2023-04-25T06:37:18;14.34;69.32
77467;DHT22;66564;42.482;25.548;2023-04-25T06:39:44;14.38;69.88
77467;DHT22;66564;42.482;25.548;2023-04-25T06:42:09;14.50;68.90
77467;DHT22;66564;42.482;25.548;2023-04-25T06:44:35;14.44;69.08
77467;DHT22;66564;42.482;25.548;2023-04-25T06:47:01;14.55;69.06
77467;DHT22;66564;42.482;25.548;2023-04-25T06:49:26;14.67;68.85
77467;DHT22;66564;42.482;25.548;2023-04-25T06:51:52;14.70;68.42
77467;DHT22;66564;42.482;25.548;2023-04-25T06:54:17;14.78;67.38
77467;DHT22;66564;42.482;25.548;2023-04-25T06:56:43;14.84;67.20
77467;DHT22;66564;42.482;25.548;2023-04-25T06:59:08;14.85;66.33
77467;DHT22;66564;42.482;25.548;2023-04-25T07:01:34;14.85;66.65
77467;DHT22;66564;42.482;25.548;2023-04-25T07:04:00;14.92;66.46
77467;DHT22;66564;42.482;25.548;2023-04-25T07:06:26;14.95;66.42
77467;DHT22;66564;42.482;25.548;2023-04-25T07:08:53;14.98;65.92
77467;DHT22;66564;42.482;25.548;2023-04-25T07:11:19;15.02;65.70
77467;DHT22;66564;42.482;25.548;2023-04-25T07:13:45;15.11;66.11
77467;DHT22;66564;42.482;25.548;2023-04-25T07:16:10;15.15;64.72
77467;DHT22;66564;42.482;25.548;2023-04-25T07:18:36;15.22;64.71
77467;DHT22;66564;42.482;25.548;2023-04-25T07:21:01;15.28;64.53
77467;DHT22;66564;42.482;25.548;2023-04-25T07:23:27;15.28;64.62
77467;DHT22;66564;42.482;25.548;2023-04-25T07:25:55;15.34;64.39
77467;DHT22;66564;42.482;25.548;2023-04-25T07:28:21;15.36;64.69
77467;DHT22;66564;42.482;25.548;2023-04-25T07:30:46;15.48;64.37
77467;DHT22;66564;42.482;25.548;2023-04-25T07:33:12;15.48;64.00
77467;DHT22;66564;42.482;25.548;2023-04-25T07:35:38;15.54;64.26
77467;DHT22;66564;42.482;25.548;2023-04-25T07:38:03;15.56;63.44
77467;DHT22;66564;42.482;25.548;2023-04-25T07:40:29;15.61;63.32
77467;DHT22;66564;42.482;25.548;2023-04-25T07:42:55;15.72;63.37
77467;DHT22;66564;42.482;25.548;2023-04-25T07:45:21;15.86;63.04
77467;DHT22;66564;42.482;25.548;2023-04-25T07:47:47;15.90;62.52
77467;DHT22;66564;42.482;25.548;2023-04-25T07:50:13;15.97;62.65
77467;DHT22;66564;42.482;25.548;2023-04-25T07:52:38;16.00;62.79
77467;DHT22;66564;42.482;25.548;2023-04-25T07:55:04;16.13;62.62
77467;DHT22;66564;42.482;25.548;2023-04-25T07:57:30;16.29;61.25
77467;DHT22;66564;42.482;25.548;2023-04-25T07:59:56;16.37;60.88
77467;DHT22;66564;42.482;25.548;2023-04-25T08:02:21;16.49;60.48
77467;DHT22;66564;42.482;25.548;2023-04-25T08:04:47;16.59;60.87
77467;DHT22;66564;42.482;25.548;2023-04-25T08:07:14;16.75;60.80
77467;DHT22;66564;42.482;25.548;2023-04-25T08:09:40;16.92;60.43
77467;DHT22;66564;42.482;25.548;2023-04-25T08:12:06;17.31;59.79
77467;DHT22;66564;42.482;25.548;2023-04-25T08:14:31;17.62;58.89
77467;DHT22;66564;42.482;25.548;2023-04-25T08:17:02;18.04;61.49
77467;DHT22;66564;42.482;25.548;2023-04-25T08:19:29;18.45;61.97
77467;DHT22;66564;42.482;25.548;2023-04-25T08:21:57;18.91;57.91
77467;DHT22;66564;42.482;25.548;2023-04-25T08:24:31;19.33;56.54
77467;DHT22;66564;42.482;25.548;2023-04-25T08:26:59;19.65;53.99
77467;DHT22;66564;42.482;25.548;2023-04-25T08:29:25;19.97;55.73
77467;DHT22;66564;42.482;25.548;2023-04-25T08:31:51;20.31;51.86
77467;DHT22;66564;42.482;25.548;2023-04-25T08:34:18;20.55;55.54
77467;DHT22;66564;42.482;25.548;2023-04-25T08:36:44;20.95;54.52
77467;DHT22;66564;42.482;25.548;2023-04-25T08:39:09;21.41;54.80
77467;DHT22;66564;42.482;25.548;2023-04-25T08:41:39;21.79;53.88
77467;DHT22;66564;42.482;25.548;2023-04-25T08:44:10;22.06;52.02
77467;DHT22;66564;42.482;25.548;2023-04-25T08:46:38;22.04;50.00
77467;DHT22;66564;42.482;25.548;2023-04-25T08:49:04;22.33;52.62
77467;DHT22;66564;42.482;25.548;2023-04-25T08:51:32;22.65;50.40
77467;DHT22;66564;42.482;25.548;2023-04-25T08:54:11;22.95;50.33
77467;DHT22;66564;42.482;25.548;2023-04-25T08:56:43;23.18;47.50
77467;DHT22;66564;42.482;25.548;2023-04-25T08:59:09;23.33;47.34
77467;DHT22;66564;42.482;25.548;2023-04-25T09:01:42;23.57;46.10
77467;DHT22;66564;42.482;25.548;2023-04-25T09:04:08;23.69;44.50
77467;DHT22;66564;42.482;25.548;2023-04-25T09:06:34;23.43;43.57
77467;DHT22;66564;42.482;25.548;2023-04-25T09:09:11;22.92;44.32
77467;DHT22;66564;42.482;25.548;2023-04-25T09:11:39;22.75;44.02
77467;DHT22;66564;42.482;25.548;2023-04-25T09:14:22;23.02;45.48
77467;DHT22;66564;42.482;25.548;2023-04-25T09:19:29;23.55;43.20
77467;DHT22;66564;42.482;25.548;2023-04-25T09:21:57;23.36;44.03
77467;DHT22;66564;42.482;25.548;2023-04-25T09:24:37;23.16;44.57
77467;DHT22;66564;42.482;25.548;2023-04-25T09:27:09;23.15;44.28
77467;DHT22;66564;42.482;25.548;2023-04-25T09:29:37;23.20;45.03
77467;DHT22;66564;42.482;25.548;2023-04-25T09:32:20;22.95;43.96
77467;DHT22;66564;42.482;25.548;2023-04-25T09:34:48;23.09;43.79
77467;DHT22;66564;42.482;25.548;2023-04-25T09:39:46;23.16;43.25
77467;DHT22;66564;42.482;25.548;2023-04-25T09:42:13;23.38;43.15
77467;DHT22;66564;42.482;25.548;2023-04-25T09:44:46;23.62;43.98
77467;DHT22;66564;42.482;25.548;2023-04-25T09:47:13;23.23;43.19
77467;DHT22;66564;42.482;25.548;2023-04-25T09:49:42;22.72;43.35
77467;DHT22;66564;42.482;25.548;2023-04-25T09:52:09;22.72;43.37
77467;DHT22;66564;42.482;25.548;2023-04-25T09:54:35;22.64;44.14
77467;DHT22;66564;42.482;25.548;2023-04-25T09:57:10;22.60;44.54
77467;DHT22;66564;42.482;25.548;2023-04-25T09:59:39;22.44;45.17
77467;DHT22;66564;42.482;25.548;2023-04-25T10:02:07;22.30;45.75
77467;DHT22;66564;42.482;25.548;2023-04-25T10:04:35;22.14;45.78
77467;DHT22;66564;42.482;25.548;2023-04-25T10:07:06;21.84;46.69
77467;DHT22;66564;42.482;25.548;2023-04-25T10:09:32;21.66;50.77
77467;DHT22;66564;42.482;25.548;2023-04-25T10:12:01;21.49;50.93
77467;DHT22;66564;42.482;25.548;2023-04-25T10:14:29;21.32;55.14
77467;DHT22;66564;42.482;25.548;2023-04-25T10:16:57;21.18;55.44
77467;DHT22;66564;42.482;25.548;2023-04-25T10:19:24;20.99;56.56
77467;DHT22;66564;42.482;25.548;2023-04-25T10:21:58;20.78;58.60
77467;DHT22;66564;42.482;25.548;2023-04-25T10:24:26;20.57;59.18
77467;DHT22;66564;42.482;25.548;2023-04-25T10:26:52;20.40;60.57
77467;DHT22;66564;42.482;25.548;2023-04-25T10:29:25;20.20;59.66
77467;DHT22;66564;42.482;25.548;2023-04-25T10:31:51;20.09;59.97
77467;DHT22;66564;42.482;25.548;2023-04-25T10:34:17;20.00;61.29
77467;DHT22;66564;42.482;25.548;2023-04-25T10:36:49;19.65;61.85
77467;DHT22;66564;42.482;25.548;2023-04-25T10:39:24;19.58;61.67
77467;DHT22;66564;42.482;25.548;2023-04-25T10:41:55;18.91;61.48
77467;DHT22;66564;42.482;25.548;2023-04-25T10:44:21;18.74;63.15
77467;DHT22;66564;42.482;25.548;2023-04-25T10:46:46;18.79;63.08
77467;DHT22;66564;42.482;25.548;2023-04-25T10:49:35;18.58;60.79
77467;DHT22;66564;42.482;25.548;2023-04-25T10:52:18;18.41;61.25
77467;DHT22;66564;42.482;25.548;2023-04-25T10:59:59;18.18;63.11
77467;DHT22;66564;42.482;25.548;2023-04-25T11:02:28;17.61;63.84
77467;DHT22;66564;42.482;25.548;2023-04-25T11:04:54;17.79;63.08
77467;DHT22;66564;42.482;25.548;2023-04-25T11:07:33;17.91;62.25
77467;DHT22;66564;42.482;25.548;2023-04-25T11:10:02;18.01;62.90
77467;DHT22;66564;42.482;25.548;2023-04-25T11:12:30;18.04;61.52
77467;DHT22;66564;42.482;25.548;2023-04-25T11:15:01;17.99;61.74
77467;DHT22;66564;42.482;25.548;2023-04-25T11:17:26;18.01;61.66
77467;DHT22;66564;42.482;25.548;2023-04-25T11:19:53;18.17;62.14
77467;DHT22;66564;42.482;25.548;2023-04-25T11:22:21;18.24;61.48
77467;DHT22;66564;42.482;25.548;2023-04-25T11:24:46;18.47;62.75
77467;DHT22;66564;42.482;25.548;2023-04-25T11:27:12;18.37;63.95
77467;DHT22;66564;42.482;25.548;2023-04-25T11:29:38;18.77;63.40
77467;DHT22;66564;42.482;25.548;2023-04-25T11:32:04;19.20;62.67
77467;DHT22;66564;42.482;25.548;2023-04-25T11:34:31;19.49;60.08
77467;DHT22;66564;42.482;25.548;2023-04-25T11:36:58;19.56;58.42
77467;DHT22;66564;42.482;25.548;2023-04-25T11:39:25;19.62;58.37
77467;DHT22;66564;42.482;25.548;2023-04-25T11:41:51;19.86;57.67
77467;DHT22;66564;42.482;25.548;2023-04-25T11:44:18;20.31;58.11
77467;DHT22;66564;42.482;25.548;2023-04-25T11:46:44;20.74;55.34
77467;DHT22;66564;42.482;25.548;2023-04-25T11:49:10;20.95;52.85
77467;DHT22;66564;42.482;25.548;2023-04-25T11:51:44;21.22;52.53
77467;DHT22;66564;42.482;25.548;2023-04-25T11:54:11;21.23;50.74
77467;DHT22;66564;42.482;25.548;2023-04-25T11:56:37;21.28;51.14
77467;DHT22;66564;42.482;25.548;2023-04-25T11:59:04;21.39;50.30
77467;DHT22;66564;42.482;25.548;2023-04-25T12:01:34;21.31;50.21
77467;DHT22;66564;42.482;25.548;2023-04-25T12:04:23;21.43;52.14
77467;DHT22;66564;42.482;25.548;2023-04-25T12:06:51;21.46;50.33
77467;DHT22;66564;42.482;25.548;2023-04-25T12:09:21;21.15;49.69
77467;DHT22;66564;42.482;25.548;2023-04-25T12:11:54;21.31;51.09
77467;DHT22;66564;42.482;25.548;2023-04-25T12:14:26;20.96;50.56
77467;DHT22;66564;42.482;25.548;2023-04-25T12:16:55;21.11;49.98
77467;DHT22;66564;42.482;25.548;2023-04-25T12:19:22;21.09;48.85
77467;DHT22;66564;42.482;25.548;2023-04-25T12:21:48;20.99;48.97
77467;DHT22;66564;42.482;25.548;2023-04-25T12:24:15;20.92;49.80
77467;DHT22;66564;42.482;25.548;2023-04-25T12:27:20;20.95;50.71
77467;DHT22;66564;42.482;25.548;2023-04-25T12:29:50;20.43;51.11
77467;DHT22;66564;42.482;25.548;2023-04-25T12:32:16;20.44;51.84
77467;DHT22;66564;42.482;25.548;2023-04-25T12:34:43;20.37;51.55
77467;DHT22;66564;42.482;25.548;2023-04-25T12:37:09;20.17;51.84
77467;DHT22;66564;42.482;25.548;2023-04-25T12:39:34;20.27;53.84
77467;DHT22;66564;42.482;25.548;2023-04-25T12:42:00;20.25;52.67
77467;DHT22;66564;42.482;25.548;2023-04-25T12:44:26;19.97;52.82
77467;DHT22;66564;42.482;25.548;2023-04-25T12:46:51;19.84;53.42
77467;DHT22;66564;42.482;25.548;2023-04-25T12:49:17;19.83;52.24
77467;DHT22;66564;42.482;25.548;2023-04-25T12:51:43;19.90;52.77
77467;DHT22;66564;42.482;25.548;2023-04-25T12:54:08;19.45;53.72
77467;DHT22;66564;42.482;25.548;2023-04-25T12:56:35;19.83;53.20
77467;DHT22;66564;42.482;25.548;2023-04-25T12:59:01;19.87;52.99
77467;DHT22;66564;42.482;25.548;2023-04-25T13:01:28;19.89;53.01
77467;DHT22;66564;42.482;25.548;2023-04-25T13:03:54;19.80;53.26
77467;DHT22;66564;42.482;25.548;2023-04-25T13:06:20;19.93;52.96
77467;DHT22;66564;42.482;25.548;2023-04-25T13:08:46;19.52;54.14
77467;DHT22;66564;42.482;25.548;2023-04-25T13:11:12;19.79;52.82
77467;DHT22;66564;42.482;25.548;2023-04-25T13:13:39;19.77;53.61
77467;DHT22;66564;42.482;25.548;2023-04-25T13:16:06;19.77;53.20
77467;DHT22;66564;42.482;25.548;2023-04-25T13:18:34;19.77;53.37
77467;DHT22;66564;42.482;25.548;2023-04-25T13:20:59;19.69;53.49
77467;DHT22;66564;42.482;25.548;2023-04-25T13:23:27;19.73;56.84
77467;DHT22;66564;42.482;25.548;2023-04-25T13:25:55;19.55;58.29
77467;DHT22;66564;42.482;25.548;2023-04-25T13:28:27;18.17;52.34
77467;DHT22;66564;42.482;25.548;2023-04-25T13:30:53;17.18;55.97
77467;DHT22;66564;42.482;25.548;2023-04-25T13:33:19;17.52;56.38
77467;DHT22;66564;42.482;25.548;2023-04-25T13:35:46;17.58;57.33
77467;DHT22;66564;42.482;25.548;2023-04-25T13:38:23;17.58;59.69
77467;DHT22;66564;42.482;25.548;2023-04-25T13:40:49;17.43;59.38
77467;DHT22;66564;42.482;25.548;2023-04-25T13:43:18;17.35;59.55
77467;DHT22;66564;42.482;25.548;2023-04-25T13:45:44;17.35;58.72
77467;DHT22;66564;42.482;25.548;2023-04-25T13:48:09;17.31;58.42
77467;DHT22;66564;42.482;25.548;2023-04-25T13:50:35;17.29;62.37
77467;DHT22;66564;42.482;25.548;2023-04-25T13:53:01;17.31;64.13
77467;DHT22;66564;42.482;25.548;2023-04-25T13:55:27;17.28;64.83
77467;DHT22;66564;42.482;25.548;2023-04-25T13:57:52;17.28;65.25
77467;DHT22;66564;42.482;25.548;2023-04-25T14:00:18;17.22;66.41
77467;DHT22;66564;42.482;25.548;2023-04-25T14:02:44;17.18;66.25
77467;DHT22;66564;42.482;25.548;2023-04-25T14:05:09;17.15;65.69
77467;DHT22;66564;42.482;25.548;2023-04-25T14:07:35;17.18;65.46
77467;DHT22;66564;42.482;25.548;2023-04-25T14:10:02;17.14;66.06
77467;DHT22;66564;42.482;25.548;2023-04-25T14:12:27;17.05;66.74
77467;DHT22;66564;42.482;25.548;2023-04-25T14:14:53;17.05;65.28
77467;DHT22;66564;42.482;25.548;2023-04-25T14:17:19;16.92;65.84
77467;DHT22;66564;42.482;25.548;2023-04-25T14:19:45;16.75;66.21
77467;DHT22;66564;42.482;25.548;2023-04-25T14:22:13;16.71;65.57
77467;DHT22;66564;42.482;25.548;2023-04-25T14:24:40;16.64;65.44
77467;DHT22;66564;42.482;25.548;2023-04-25T14:27:05;16.54;65.64
77467;DHT22;66564;42.482;25.548;2023-04-25T14:29:31;16.47;66.92
77467;DHT22;66564;42.482;25.548;2023-04-25T14:31:56;16.30;66.40
77467;DHT22;66564;42.482;25.548;2023-04-25T14:34:24;16.13;66.90
77467;DHT22;66564;42.482;25.548;2023-04-25T14:36:51;15.93;67.82
77467;DHT22;66564;42.482;25.548;2023-04-25T14:39:18;15.85;68.57
77467;DHT22;66564;42.482;25.548;2023-04-25T14:41:44;15.76;69.67
77467;DHT22;66564;42.482;25.548;2023-04-25T14:44:09;15.67;71.23
77467;DHT22;66564;42.482;25.548;2023-04-25T14:46:36;15.51;72.96
77467;DHT22;66564;42.482;25.548;2023-04-25T14:49:02;15.30;75.46
77467;DHT22;66564;42.482;25.548;2023-04-25T14:51:29;15.45;74.94
77467;DHT22;66564;42.482;25.548;2023-04-25T14:53:56;15.36;73.58
77467;DHT22;66564;42.482;25.548;2023-04-25T14:56:21;15.58;74.27
77467;DHT22;66564;42.482;25.548;2023-04-25T14:58:47;15.67;73.59
77467;DHT22;66564;42.482;25.548;2023-04-25T15:01:13;15.86;72.89
77467;DHT22;66564;42.482;25.548;2023-04-25T15:03:45;16.03;72.36
77467;DHT22;66564;42.482;25.548;2023-04-25T15:06:11;16.16;70.89
77467;DHT22;66564;42.482;25.548;2023-04-25T15:08:41;16.21;70.26
77467;DHT22;66564;42.482;25.548;2023-04-25T15:11:13;16.29;69.35
77467;DHT22;66564;42.482;25.548;2023-04-25T15:13:43;16.26;68.92
77467;DHT22;66564;42.482;25.548;2023-04-25T15:16:10;16.24;68.88
77467;DHT22;66564;42.482;25.548;2023-04-25T15:18:36;16.19;69.93
77467;DHT22;66564;42.482;25.548;2023-04-25T15:21:02;16.06;68.40
77467;DHT22;66564;42.482;25.548;2023-04-25T15:23:28;15.96;68.58
77467;DHT22;66564;42.482;25.548;2023-04-25T15:25:54;15.85;68.69